Airfield :
LOGIN :

Register | Disclaimer

   EN    FR    IT 

 










Legend :    VFR   Marginal VFR   IFR   Intensive IFR   Very Intensive IFR
Visi :
Ceiling :
>= 8 km
>= 3000ft
5 to 8 km
1000 to 3000 ft
1500m to 5 km
500 to 1000 ft
800 to 1500m
200 to 500 ft
< 800m
< 200 ft
Symbols :   Thunderstorms  Fog  Heavy snow  Heavy precipitations  Wind > 20 kt
SIGMETs :     Misc.  Thunderstorms  Icing  Turbulence  Mountain Waves  Volcanic Ashes






- Airport Elevation : 392 ft
- IATA code : CDG


LFPG - Paris-Aeroport Charles De Gaulle

CURRENT METAR :
  • 150530Z 16006KT 9999 FEW006 BKN013 BKN019 14/13 Q1006 NOSIG

EXPIRED METARs :
  • 150500Z 17006KT 9999 FEW006 BKN010 BKN053 14/12 Q1006 NOSIG
  • 150430Z 19006KT 9999 FEW011 BKN070 14/12 Q1006 NOSIG
  • 150400Z 19009KT 9999 FEW007 SCT053 BKN066 14/12 Q1006 NOSIG
  • 150330Z 19008KT 9999 FEW011 SCT052 BKN059 14/12 Q1006 NOSIG
  • 150300Z 18007KT 9999 FEW006 BKN050 14/13 Q1006 NOSIG

TAF TAF LFPG
Valid from the 15 at 06:00 until the 16 at 12:00 UTC


150500Z 1506/1612 20005KT 9999 BKN040 TX16/1513Z TN11/1523Z
PROB40
TEMPO 1506/1508 BKN008
PROB40
TEMPO 1517/1519 23015G25KT SCT040TCU
BECMG 1601/1603 BKN012
PROB40
TEMPO 1603/1608 3000 RA BKN007
BECMG 1604/1606 20015G25KT
ATIS : +33 1 48 62 10 92



MET'MAP, your aeronautical weather chart ! - Copyright ORBIFLY December 2007 - Disclaimer

ORBIFLY MET'MAP TEAM :

Programming & Development : Alexandra Zaïnal
Concept & Development : Baudouin d'Aumeries
Co-Development & Prog : Marc-Olivier Méhu
Technical & hardware support : Manuel Goepfert

Contact : metmap@orbifly.com




SOURCES & CREDITS :

   NOAA